sensor_id;sensor_type;location;lat;lon;timestamp;pressure;altitude;pressure_sealevel;temperature;humidity
50854;BME280;44154;45.506;-122.806;2022-11-18T00:01:24;102087.31;;;25.43;28.90
50854;BME280;44154;45.506;-122.806;2022-11-18T00:03:51;102090.53;;;25.40;28.94
50854;BME280;44154;45.506;-122.806;2022-11-18T00:06:21;102093.72;;;25.37;28.67
50854;BME280;44154;45.506;-122.806;2022-11-18T00:08:49;102100.06;;;25.31;28.62
50854;BME280;44154;45.506;-122.806;2022-11-18T00:11:21;102088.13;;;25.25;28.94
50854;BME280;44154;45.506;-122.806;2022-11-18T00:14:11;102116.16;;;25.27;28.88
50854;BME280;44154;45.506;-122.806;2022-11-18T00:16:44;102106.44;;;25.31;28.77
50854;BME280;44154;45.506;-122.806;2022-11-18T00:19:11;102100.56;;;25.46;28.79
50854;BME280;44154;45.506;-122.806;2022-11-18T00:21:37;102108.75;;;25.65;28.61
50854;BME280;44154;45.506;-122.806;2022-11-18T00:24:03;102112.25;;;25.72;28.63
50854;BME280;44154;45.506;-122.806;2022-11-18T00:26:30;102121.78;;;25.69;28.62
50854;BME280;44154;45.506;-122.806;2022-11-18T00:28:56;102119.72;;;25.65;28.78
50854;BME280;44154;45.506;-122.806;2022-11-18T00:31:22;102121.56;;;25.52;28.75
50854;BME280;44154;45.506;-122.806;2022-11-18T00:33:48;102119.06;;;25.51;28.54
50854;BME280;44154;45.506;-122.806;2022-11-18T00:36:14;102109.59;;;25.47;28.82
50854;BME280;44154;45.506;-122.806;2022-11-18T00:38:40;102117.47;;;25.43;28.93
50854;BME280;44154;45.506;-122.806;2022-11-18T00:41:12;102121.97;;;25.37;29.19
50854;BME280;44154;45.506;-122.806;2022-11-18T00:43:39;102089.22;;;25.24;29.30
50854;BME280;44154;45.506;-122.806;2022-11-18T00:46:07;102113.78;;;25.31;29.39
50854;BME280;44154;45.506;-122.806;2022-11-18T00:48:34;102062.25;;;25.02;29.37
50854;BME280;44154;45.506;-122.806;2022-11-18T00:51:15;102100.31;;;25.29;29.16
50854;BME280;44154;45.506;-122.806;2022-11-18T00:53:42;102108.19;;;25.44;29.15
50854;BME280;44154;45.506;-122.806;2022-11-18T00:56:08;102087.16;;;25.38;29.22
50854;BME280;44154;45.506;-122.806;2022-11-18T00:58:35;102104.50;;;25.69;28.90
50854;BME280;44154;45.506;-122.806;2022-11-18T01:01:02;102106.63;;;25.67;28.84
50854;BME280;44154;45.506;-122.806;2022-11-18T01:03:29;102109.47;;;25.60;28.65
50854;BME280;44154;45.506;-122.806;2022-11-18T01:05:55;102103.47;;;25.51;28.65
50854;BME280;44154;45.506;-122.806;2022-11-18T01:08:22;102106.88;;;25.47;29.00
50854;BME280;44154;45.506;-122.806;2022-11-18T01:10:48;102109.72;;;25.40;28.95
50854;BME280;44154;45.506;-122.806;2022-11-18T01:13:17;102105.13;;;25.34;28.88
50854;BME280;44154;45.506;-122.806;2022-11-18T01:15:57;102108.94;;;25.33;28.96
50854;BME280;44154;45.506;-122.806;2022-11-18T01:18:25;102114.84;;;25.30;29.12
50854;BME280;44154;45.506;-122.806;2022-11-18T01:20:52;102126.72;;;25.23;29.20
50854;BME280;44154;45.506;-122.806;2022-11-18T01:23:19;102109.91;;;25.20;29.20
50854;BME280;44154;45.506;-122.806;2022-11-18T01:25:47;102124.06;;;25.35;29.23
50854;BME280;44154;45.506;-122.806;2022-11-18T01:28:16;102134.19;;;25.53;28.95
50854;BME280;44154;45.506;-122.806;2022-11-18T01:30:42;102113.34;;;25.52;28.95
50854;BME280;44154;45.506;-122.806;2022-11-18T01:33:09;102128.78;;;25.65;28.86
50854;BME280;44154;45.506;-122.806;2022-11-18T01:35:40;102127.19;;;25.57;29.12
50854;BME280;44154;45.506;-122.806;2022-11-18T01:38:09;102136.47;;;25.56;28.85
50854;BME280;44154;45.506;-122.806;2022-11-18T01:40:36;102117.31;;;25.38;29.30
50854;BME280;44154;45.506;-122.806;2022-11-18T01:43:10;102136.19;;;25.46;29.13
50854;BME280;44154;45.506;-122.806;2022-11-18T01:45:39;102111.13;;;25.24;29.27
50854;BME280;44154;45.506;-122.806;2022-11-18T01:50:42;102094.28;;;25.02;29.18
50854;BME280;44154;45.506;-122.806;2022-11-18T01:53:15;102129.69;;;25.22;29.31
50854;BME280;44154;45.506;-122.806;2022-11-18T01:55:45;102123.75;;;25.25;29.35
50854;BME280;44154;45.506;-122.806;2022-11-18T01:58:21;102126.72;;;25.23;29.42
50854;BME280;44154;45.506;-122.806;2022-11-18T02:00:49;102123.59;;;25.20;29.27
50854;BME280;44154;45.506;-122.806;2022-11-18T02:03:16;102135.88;;;25.36;29.23
50854;BME280;44154;45.506;-122.806;2022-11-18T02:05:45;102145.75;;;25.55;28.98
50854;BME280;44154;45.506;-122.806;2022-11-18T02:08:13;102153.22;;;25.67;28.59
50854;BME280;44154;45.506;-122.806;2022-11-18T02:10:39;102149.44;;;25.68;29.11
50854;BME280;44154;45.506;-122.806;2022-11-18T02:13:05;102144.88;;;25.61;29.13
50854;BME280;44154;45.506;-122.806;2022-11-18T02:16:10;102142.44;;;25.53;29.57
50854;BME280;44154;45.506;-122.806;2022-11-18T02:26:34;102148.53;;;25.37;29.37
50854;BME280;44154;45.506;-122.806;2022-11-18T02:29:11;102158.66;;;25.36;29.61
50854;BME280;44154;45.506;-122.806;2022-11-18T02:31:59;102142.88;;;25.32;29.74
50854;BME280;44154;45.506;-122.806;2022-11-18T02:34:49;102137.75;;;25.17;29.83
50854;BME280;44154;45.506;-122.806;2022-11-18T02:37:24;102134.94;;;25.23;29.69
50854;BME280;44154;45.506;-122.806;2022-11-18T02:42:32;102114.38;;;24.96;29.49
50854;BME280;44154;45.506;-122.806;2022-11-18T02:45:04;102120.97;;;25.32;29.64
50854;BME280;44154;45.506;-122.806;2022-11-18T02:47:33;102129.78;;;25.52;29.27
50854;BME280;44154;45.506;-122.806;2022-11-18T02:50:03;102130.53;;;25.59;29.43
50854;BME280;44154;45.506;-122.806;2022-11-18T02:52:32;102123.22;;;25.72;29.31
50854;BME280;44154;45.506;-122.806;2022-11-18T02:55:02;102123.41;;;25.89;29.18
50854;BME280;44154;45.506;-122.806;2022-11-18T02:57:32;102126.53;;;25.92;29.09
50854;BME280;44154;45.506;-122.806;2022-11-18T03:00:00;102136.28;;;26.07;28.84
50854;BME280;44154;45.506;-122.806;2022-11-18T03:02:26;102144.97;;;26.04;29.21
50854;BME280;44154;45.506;-122.806;2022-11-18T03:04:55;102058.84;;;25.44;29.35
50854;BME280;44154;45.506;-122.806;2022-11-18T03:07:29;102153.19;;;25.85;29.24
50854;BME280;44154;45.506;-122.806;2022-11-18T03:09:59;102157.25;;;25.83;29.47
50854;BME280;44154;45.506;-122.806;2022-11-18T03:22:57;102146.59;;;26.23;28.82
50854;BME280;44154;45.506;-122.806;2022-11-18T03:25:50;102112.81;;;25.92;28.88
50854;BME280;44154;45.506;-122.806;2022-11-18T03:28:32;102151.19;;;26.11;29.00
50854;BME280;44154;45.506;-122.806;2022-11-18T03:31:23;102145.56;;;26.06;29.08
50854;BME280;44154;45.506;-122.806;2022-11-18T03:34:23;102145.56;;;26.06;29.28
50854;BME280;44154;45.506;-122.806;2022-11-18T03:36:55;102149.19;;;26.18;29.36
50854;BME280;44154;45.506;-122.806;2022-11-18T03:39:22;102138.63;;;26.34;29.14
50854;BME280;44154;45.506;-122.806;2022-11-18T03:42:08;102134.84;;;26.46;29.01
50854;BME280;44154;45.506;-122.806;2022-11-18T03:44:40;102122.97;;;26.34;29.12
50854;BME280;44154;45.506;-122.806;2022-11-18T03:47:36;102140.81;;;26.43;28.97
50854;BME280;44154;45.506;-122.806;2022-11-18T03:50:26;102147.22;;;26.37;28.99
50854;BME280;44154;45.506;-122.806;2022-11-18T03:52:54;102138.47;;;26.28;29.11
50854;BME280;44154;45.506;-122.806;2022-11-18T03:55:25;102144.06;;;26.22;29.14
50854;BME280;44154;45.506;-122.806;2022-11-18T04:00:47;102139.16;;;26.12;29.51
50854;BME280;44154;45.506;-122.806;2022-11-18T04:03:15;102132.06;;;26.04;29.28
50854;BME280;44154;45.506;-122.806;2022-11-18T04:05:42;102071.19;;;25.65;29.81
50854;BME280;44154;45.506;-122.806;2022-11-18T04:08:21;102141.44;;;25.96;29.46
50854;BME280;44154;45.506;-122.806;2022-11-18T04:10:57;102149.53;;;25.91;29.86
50854;BME280;44154;45.506;-122.806;2022-11-18T04:13:29;102122.75;;;25.75;29.72
50854;BME280;44154;45.506;-122.806;2022-11-18T04:15:56;102158.09;;;25.83;29.60
50854;BME280;44154;45.506;-122.806;2022-11-18T04:18:22;102153.50;;;25.77;30.07
50854;BME280;44154;45.506;-122.806;2022-11-18T04:20:48;102168.78;;;25.73;29.85
50854;BME280;44154;45.506;-122.806;2022-11-18T04:23:14;102177.91;;;25.67;30.03
50854;BME280;44154;45.506;-122.806;2022-11-18T04:25:41;102100.53;;;25.27;29.93
50854;BME280;44154;45.506;-122.806;2022-11-18T04:28:07;102174.09;;;25.68;29.98
50854;BME280;44154;45.506;-122.806;2022-11-18T04:30:33;102170.38;;;25.62;29.76
50854;BME280;44154;45.506;-122.806;2022-11-18T04:33:00;102157.94;;;25.59;29.99
50854;BME280;44154;45.506;-122.806;2022-11-18T04:35:26;102165.13;;;25.60;29.89
50854;BME280;44154;45.506;-122.806;2022-11-18T04:37:53;102147.91;;;25.53;29.93
50854;BME280;44154;45.506;-122.806;2022-11-18T04:40:19;102152.25;;;25.42;30.05
50854;BME280;44154;45.506;-122.806;2022-11-18T04:42:46;102163.59;;;25.46;29.92
50854;BME280;44154;45.506;-122.806;2022-11-18T04:45:12;102165.66;;;25.51;29.79
50854;BME280;44154;45.506;-122.806;2022-11-18T04:47:38;102168.09;;;25.59;30.29
50854;BME280;44154;45.506;-122.806;2022-11-18T04:50:05;102144.13;;;25.54;30.06
50854;BME280;44154;45.506;-122.806;2022-11-18T04:52:31;102145.06;;;25.78;29.92
50854;BME280;44154;45.506;-122.806;2022-11-18T04:54:57;102142.19;;;25.73;29.37
50854;BME280;44154;45.506;-122.806;2022-11-18T04:57:24;102147.19;;;25.76;29.38
50854;BME280;44154;45.506;-122.806;2022-11-18T04:59:50;102128.19;;;25.63;29.23
50854;BME280;44154;45.506;-122.806;2022-11-18T05:02:16;102162.38;;;25.79;29.61
50854;BME280;44154;45.506;-122.806;2022-11-18T05:04:42;102160.22;;;25.62;29.64
50854;BME280;44154;45.506;-122.806;2022-11-18T05:07:13;102164.44;;;25.65;29.56
50854;BME280;44154;45.506;-122.806;2022-11-18T05:09:40;102148.28;;;25.57;29.37
50854;BME280;44154;45.506;-122.806;2022-11-18T05:12:11;102153.47;;;25.47;29.34
50854;BME280;44154;45.506;-122.806;2022-11-18T05:14:56;102168.09;;;25.59;29.59
50854;BME280;44154;45.506;-122.806;2022-11-18T05:17:22;102136.34;;;25.33;29.24
50854;BME280;44154;45.506;-122.806;2022-11-18T05:22:17;102169.44;;;25.50;29.43
50854;BME280;44154;45.506;-122.806;2022-11-18T05:24:43;102163.59;;;25.46;29.40
50854;BME280;44154;45.506;-122.806;2022-11-18T05:27:10;102156.19;;;25.47;29.74
50854;BME280;44154;45.506;-122.806;2022-11-18T05:29:37;102106.00;;;25.09;29.59
50854;BME280;44154;45.506;-122.806;2022-11-18T05:32:03;102156.66;;;25.43;29.49
50854;BME280;44154;45.506;-122.806;2022-11-18T05:34:30;102178.38;;;25.45;29.71
50854;BME280;44154;45.506;-122.806;2022-11-18T05:36:56;102168.31;;;25.39;29.80
50854;BME280;44154;45.506;-122.806;2022-11-18T05:39:22;102111.34;;;25.04;29.75
50854;BME280;44154;45.506;-122.806;2022-11-18T05:41:49;102149.84;;;25.27;29.63
50854;BME280;44154;45.506;-122.806;2022-11-18T05:47:10;102188.09;;;25.41;29.51
50854;BME280;44154;45.506;-122.806;2022-11-18T05:49:36;102175.53;;;25.33;29.54
50854;BME280;44154;45.506;-122.806;2022-11-18T05:52:03;102180.56;;;25.36;29.73
50854;BME280;44154;45.506;-122.806;2022-11-18T05:54:29;102193.66;;;25.34;29.35
50854;BME280;44154;45.506;-122.806;2022-11-18T05:56:56;102188.19;;;25.34;29.31
50854;BME280;44154;45.506;-122.806;2022-11-18T05:59:22;102172.06;;;25.19;29.62
50854;BME280;44154;45.506;-122.806;2022-11-18T06:01:58;102197.69;;;25.32;29.64
50854;BME280;44154;45.506;-122.806;2022-11-18T06:04:40;102196.44;;;25.27;29.70
50854;BME280;44154;45.506;-122.806;2022-11-18T06:07:19;102207.84;;;25.24;29.66
50854;BME280;44154;45.506;-122.806;2022-11-18T06:09:50;102152.72;;;24.96;29.74
50854;BME280;44154;45.506;-122.806;2022-11-18T06:12:20;102171.59;;;25.04;29.91
50854;BME280;44154;45.506;-122.806;2022-11-18T06:14:53;102219.50;;;25.20;29.53
50854;BME280;44154;45.506;-122.806;2022-11-18T06:17:26;102225.81;;;25.20;29.86
50854;BME280;44154;45.506;-122.806;2022-11-18T06:19:56;102227.94;;;25.18;29.67
50854;BME280;44154;45.506;-122.806;2022-11-18T06:22:23;102185.56;;;24.96;29.40
50854;BME280;44154;45.506;-122.806;2022-11-18T06:24:50;102232.19;;;25.14;29.24
50854;BME280;44154;45.506;-122.806;2022-11-18T06:27:17;102234.31;;;25.12;29.41
50854;BME280;44154;45.506;-122.806;2022-11-18T06:29:44;102220.47;;;25.07;29.32
50854;BME280;44154;45.506;-122.806;2022-11-18T06:32:10;102153.00;;;24.62;29.56
50854;BME280;44154;45.506;-122.806;2022-11-18T06:34:36;102214.69;;;24.90;29.57
50854;BME280;44154;45.506;-122.806;2022-11-18T06:37:16;102220.78;;;24.92;29.68
50854;BME280;44154;45.506;-122.806;2022-11-18T06:39:42;102232.66;;;25.11;29.42
50854;BME280;44154;45.506;-122.806;2022-11-18T06:42:09;102239.41;;;25.08;29.24
50854;BME280;44154;45.506;-122.806;2022-11-18T06:44:35;102219.75;;;24.86;29.37
50854;BME280;44154;45.506;-122.806;2022-11-18T06:47:03;102226.47;;;24.90;29.33
50854;BME280;44154;45.506;-122.806;2022-11-18T06:49:30;102239.34;;;24.90;29.48
50854;BME280;44154;45.506;-122.806;2022-11-18T06:51:56;102245.16;;;25.00;30.23
50854;BME280;44154;45.506;-122.806;2022-11-18T06:54:22;102219.22;;;25.03;30.07
50854;BME280;44154;45.506;-122.806;2022-11-18T06:56:48;102213.56;;;25.23;29.88
50854;BME280;44154;45.506;-122.806;2022-11-18T06:59:14;102227.03;;;25.24;29.52
50854;BME280;44154;45.506;-122.806;2022-11-18T07:01:46;102222.75;;;25.10;29.19
50854;BME280;44154;45.506;-122.806;2022-11-18T07:04:13;102220.47;;;25.07;29.18
50854;BME280;44154;45.506;-122.806;2022-11-18T07:06:39;102220.91;;;25.04;29.40
50854;BME280;44154;45.506;-122.806;2022-11-18T07:09:06;102211.56;;;24.86;29.28
50854;BME280;44154;45.506;-122.806;2022-11-18T07:11:32;102234.25;;;24.93;29.41
50854;BME280;44154;45.506;-122.806;2022-11-18T07:13:59;102217.66;;;24.88;29.31
50854;BME280;44154;45.506;-122.806;2022-11-18T07:16:26;102216.91;;;24.74;29.27
50854;BME280;44154;45.506;-122.806;2022-11-18T07:18:53;102220.53;;;24.93;29.75
50854;BME280;44154;45.506;-122.806;2022-11-18T07:21:23;102228.69;;;25.07;29.85
50854;BME280;44154;45.506;-122.806;2022-11-18T07:23:49;102209.81;;;25.17;29.60
50854;BME280;44154;45.506;-122.806;2022-11-18T07:26:16;102203.75;;;25.15;29.17
50854;BME280;44154;45.506;-122.806;2022-11-18T07:28:43;102228.78;;;25.19;29.23
50854;BME280;44154;45.506;-122.806;2022-11-18T07:31:14;102238.13;;;25.11;29.02
50854;BME280;44154;45.506;-122.806;2022-11-18T07:33:42;102230.78;;;25.05;28.90
50854;BME280;44154;45.506;-122.806;2022-11-18T07:36:11;102214.47;;;24.91;29.08
50854;BME280;44154;45.506;-122.806;2022-11-18T07:38:38;102258.06;;;24.93;28.92
50854;BME280;44154;45.506;-122.806;2022-11-18T07:41:07;102240.00;;;24.85;29.18
50854;BME280;44154;45.506;-122.806;2022-11-18T07:43:35;102220.31;;;24.70;28.78
50854;BME280;44154;45.506;-122.806;2022-11-18T07:46:28;102245.28;;;24.87;29.51
50854;BME280;44154;45.506;-122.806;2022-11-18T07:48:57;102242.88;;;24.97;29.58
50854;BME280;44154;45.506;-122.806;2022-11-18T07:51:25;102240.22;;;25.09;29.58
50854;BME280;44154;45.506;-122.806;2022-11-18T07:53:52;102244.84;;;25.15;29.17
50854;BME280;44154;45.506;-122.806;2022-11-18T07:56:19;102252.88;;;25.10;28.85
50854;BME280;44154;45.506;-122.806;2022-11-18T07:58:46;102231.00;;;25.03;28.87
50854;BME280;44154;45.506;-122.806;2022-11-18T08:01:15;102218.34;;;24.84;28.91
50854;BME280;44154;45.506;-122.806;2022-11-18T08:03:42;102237.22;;;24.92;28.78
50854;BME280;44154;45.506;-122.806;2022-11-18T08:06:10;102228.84;;;24.87;29.01
50854;BME280;44154;45.506;-122.806;2022-11-18T08:08:37;102241.28;;;24.83;28.95
50854;BME280;44154;45.506;-122.806;2022-11-18T08:11:06;102232.06;;;24.77;28.84
50854;BME280;44154;45.506;-122.806;2022-11-18T08:13:33;102230.13;;;24.84;29.22
50854;BME280;44154;45.506;-122.806;2022-11-18T08:16:00;102177.19;;;24.58;29.57
50854;BME280;44154;45.506;-122.806;2022-11-18T08:18:28;102237.13;;;25.05;29.41
50854;BME280;44154;45.506;-122.806;2022-11-18T08:20:55;102225.84;;;24.95;29.07
50854;BME280;44154;45.506;-122.806;2022-11-18T08:23:33;102219.50;;;24.94;28.81
50854;BME280;44154;45.506;-122.806;2022-11-18T08:26:05;102234.88;;;24.96;28.64
50854;BME280;44154;45.506;-122.806;2022-11-18T08:28:31;102251.03;;;25.04;28.68
50854;BME280;44154;45.506;-122.806;2022-11-18T08:30:58;102220.63;;;24.87;28.52
50854;BME280;44154;45.506;-122.806;2022-11-18T08:33:24;102233.03;;;24.89;28.92
50854;BME280;44154;45.506;-122.806;2022-11-18T08:35:50;102226.94;;;24.87;28.90
50854;BME280;44154;45.506;-122.806;2022-11-18T08:38:17;102239.78;;;24.87;28.92
50854;BME280;44154;45.506;-122.806;2022-11-18T08:40:45;102229.50;;;24.82;29.03
50854;BME280;44154;45.506;-122.806;2022-11-18T08:43:15;102221.94;;;24.77;29.09
50854;BME280;44154;45.506;-122.806;2022-11-18T08:45:41;102242.38;;;25.07;29.18
50854;BME280;44154;45.506;-122.806;2022-11-18T08:48:07;102177.47;;;24.82;29.13
50854;BME280;44154;45.506;-122.806;2022-11-18T08:50:33;102231.47;;;25.25;28.74
50854;BME280;44154;45.506;-122.806;2022-11-18T08:53:00;102238.00;;;25.24;28.72
50854;BME280;44154;45.506;-122.806;2022-11-18T08:55:26;102220.81;;;25.10;28.72
50854;BME280;44154;45.506;-122.806;2022-11-18T08:57:52;102220.91;;;25.04;28.75
50854;BME280;44154;45.506;-122.806;2022-11-18T09:00:18;102166.47;;;24.64;28.71
50854;BME280;44154;45.506;-122.806;2022-11-18T09:02:47;102232.28;;;25.01;28.72
50854;BME280;44154;45.506;-122.806;2022-11-18T09:05:13;102165.44;;;24.58;28.76
50854;BME280;44154;45.506;-122.806;2022-11-18T09:07:39;102218.09;;;24.85;28.74
50854;BME280;44154;45.506;-122.806;2022-11-18T09:10:06;102228.63;;;24.88;28.62
50854;BME280;44154;45.506;-122.806;2022-11-18T09:12:32;102203.66;;;24.71;28.95
50854;BME280;44154;45.506;-122.806;2022-11-18T09:14:59;102230.78;;;25.05;28.96
50854;BME280;44154;45.506;-122.806;2022-11-18T09:17:25;102229.38;;;25.21;29.04
50854;BME280;44154;45.506;-122.806;2022-11-18T09:19:51;102224.03;;;25.33;28.66
50854;BME280;44154;45.506;-122.806;2022-11-18T09:22:17;102222.16;;;25.26;28.57
50854;BME280;44154;45.506;-122.806;2022-11-18T09:24:43;102230.38;;;25.26;28.53
50854;BME280;44154;45.506;-122.806;2022-11-18T09:27:09;102223.69;;;25.22;28.31
50854;BME280;44154;45.506;-122.806;2022-11-18T09:29:36;102169.09;;;24.77;28.66
50854;BME280;44154;45.506;-122.806;2022-11-18T09:32:02;102229.06;;;25.10;28.68
50854;BME280;44154;45.506;-122.806;2022-11-18T09:34:28;102229.34;;;25.02;28.25
50854;BME280;44154;45.506;-122.806;2022-11-18T09:36:54;102218.03;;;24.92;28.45
50854;BME280;44154;45.506;-122.806;2022-11-18T09:39:22;102207.59;;;24.82;28.60
50854;BME280;44154;45.506;-122.806;2022-11-18T09:42:19;102223.72;;;24.90;28.52
50854;BME280;44154;45.506;-122.806;2022-11-18T09:47:33;102213.47;;;25.11;29.06
50854;BME280;44154;45.506;-122.806;2022-11-18T09:50:04;102194.16;;;25.24;28.92
50854;BME280;44154;45.506;-122.806;2022-11-18T09:55:12;102197.06;;;25.30;28.20
50854;BME280;44154;45.506;-122.806;2022-11-18T09:57:48;102212.66;;;25.29;28.37
50854;BME280;44154;45.506;-122.806;2022-11-18T10:00:28;102211.06;;;25.21;28.36
50854;BME280;44154;45.506;-122.806;2022-11-18T10:03:10;102151.16;;;24.81;28.41
50854;BME280;44154;45.506;-122.806;2022-11-18T10:06:10;102215.22;;;25.05;28.53
50854;BME280;44154;45.506;-122.806;2022-11-18T10:11:16;102211.13;;;24.89;28.40
50854;BME280;44154;45.506;-122.806;2022-11-18T10:16:58;102218.78;;;25.06;28.86
50854;BME280;44154;45.506;-122.806;2022-11-18T10:19:39;102214.78;;;25.27;28.81
50854;BME280;44154;45.506;-122.806;2022-11-18T10:24:51;102213.47;;;25.36;28.26
50854;BME280;44154;45.506;-122.806;2022-11-18T10:27:18;102209.59;;;25.19;28.21
50854;BME280;44154;45.506;-122.806;2022-11-18T10:29:51;102226.63;;;25.21;28.40
50854;BME280;44154;45.506;-122.806;2022-11-18T10:32:18;102236.16;;;25.18;28.33
50854;BME280;44154;45.506;-122.806;2022-11-18T10:34:56;102228.81;;;25.12;28.14
50854;BME280;44154;45.506;-122.806;2022-11-18T10:39:52;102220.91;;;25.04;28.08
50854;BME280;44154;45.506;-122.806;2022-11-18T10:42:28;102220.41;;;24.88;28.15
50854;BME280;44154;45.506;-122.806;2022-11-18T10:44:55;102227.34;;;24.91;28.09
50854;BME280;44154;45.506;-122.806;2022-11-18T10:47:39;102218.91;;;24.92;28.87
50854;BME280;44154;45.506;-122.806;2022-11-18T10:50:35;102226.75;;;25.07;30.57
50854;BME280;44154;45.506;-122.806;2022-11-18T10:53:03;102203.34;;;25.11;30.39
50854;BME280;44154;45.506;-122.806;2022-11-18T10:55:30;102204.13;;;25.19;29.30
50854;BME280;44154;45.506;-122.806;2022-11-18T10:58:06;102213.00;;;25.14;29.15
50854;BME280;44154;45.506;-122.806;2022-11-18T11:00:45;102215.97;;;25.13;29.19
50854;BME280;44154;45.506;-122.806;2022-11-18T11:03:41;102218.53;;;25.07;29.62
50854;BME280;44154;45.506;-122.806;2022-11-18T11:09:04;102198.25;;;24.90;29.67
50854;BME280;44154;45.506;-122.806;2022-11-18T11:11:53;102206.66;;;24.95;29.38
50854;BME280;44154;45.506;-122.806;2022-11-18T11:19:31;102190.00;;;24.97;30.78
50854;BME280;44154;45.506;-122.806;2022-11-18T11:22:00;102175.00;;;24.99;31.01
50854;BME280;44154;45.506;-122.806;2022-11-18T11:24:27;102176.63;;;25.07;30.85
50854;BME280;44154;45.506;-122.806;2022-11-18T11:30:25;102174.50;;;25.09;29.40
50854;BME280;44154;45.506;-122.806;2022-11-18T11:41:48;102177.59;;;24.94;29.97
50854;BME280;44154;45.506;-122.806;2022-11-18T11:44:37;102144.44;;;24.77;29.63
50854;BME280;44154;45.506;-122.806;2022-11-18T11:47:23;102154.44;;;24.90;30.42
50854;BME280;44154;45.506;-122.806;2022-11-18T11:55:49;102161.41;;;25.11;29.71
50854;BME280;44154;45.506;-122.806;2022-11-18T11:58:28;102187.44;;;25.20;29.67
50854;BME280;44154;45.506;-122.806;2022-11-18T12:01:25;102202.06;;;25.14;29.61
50854;BME280;44154;45.506;-122.806;2022-11-18T12:06:50;102172.56;;;24.91;29.66
50854;BME280;44154;45.506;-122.806;2022-11-18T12:09:23;102200.06;;;25.03;29.68
50854;BME280;44154;45.506;-122.806;2022-11-18T12:12:24;102205.34;;;24.98;29.84
50854;BME280;44154;45.506;-122.806;2022-11-18T12:15:25;102204.56;;;24.90;29.69
50854;BME280;44154;45.506;-122.806;2022-11-18T12:20:48;102219.09;;;25.16;30.21
50854;BME280;44154;45.506;-122.806;2022-11-18T12:23:28;102224.66;;;25.28;29.71
50854;BME280;44154;45.506;-122.806;2022-11-18T12:26:09;102204.19;;;25.31;29.27
50854;BME280;44154;45.506;-122.806;2022-11-18T12:28:39;102203.84;;;25.27;29.31
50854;BME280;44154;45.506;-122.806;2022-11-18T12:34:03;102194.06;;;25.13;29.05
50854;BME280;44154;45.506;-122.806;2022-11-18T12:36:37;102196.41;;;25.09;29.15
50854;BME280;44154;45.506;-122.806;2022-11-18T12:42:03;102174.91;;;24.87;29.52
50854;BME280;44154;45.506;-122.806;2022-11-18T12:44:49;102199.28;;;24.96;29.60
50854;BME280;44154;45.506;-122.806;2022-11-18T12:55:01;102184.41;;;25.28;29.21
50854;BME280;44154;45.506;-122.806;2022-11-18T12:57:39;102193.69;;;25.27;29.17
50854;BME280;44154;45.506;-122.806;2022-11-18T13:02:52;102113.78;;;24.68;29.11
50854;BME280;44154;45.506;-122.806;2022-11-18T13:05:21;102132.91;;;24.75;29.18
50854;BME280;44154;45.506;-122.806;2022-11-18T13:07:58;102193.88;;;25.07;29.31
50854;BME280;44154;45.506;-122.806;2022-11-18T13:10:52;102177.59;;;24.94;28.97
50854;BME280;44154;45.506;-122.806;2022-11-18T13:13:40;102184.28;;;24.98;29.18
50854;BME280;44154;45.506;-122.806;2022-11-18T13:16:23;102184.22;;;25.05;29.59
50854;BME280;44154;45.506;-122.806;2022-11-18T13:19:25;102178.91;;;25.10;29.37
50854;BME280;44154;45.506;-122.806;2022-11-18T13:21:59;102191.16;;;25.33;29.05
50854;BME280;44154;45.506;-122.806;2022-11-18T13:24:49;102181.06;;;25.26;29.04
50854;BME280;44154;45.506;-122.806;2022-11-18T13:27:44;102196.44;;;25.27;28.87
50854;BME280;44154;45.506;-122.806;2022-11-18T13:30:13;102198.56;;;25.25;28.93
50854;BME280;44154;45.506;-122.806;2022-11-18T13:32:44;102205.81;;;25.20;28.82
50854;BME280;44154;45.506;-122.806;2022-11-18T13:35:19;102191.59;;;25.04;28.86
50854;BME280;44154;45.506;-122.806;2022-11-18T13:37:56;102210.31;;;25.07;28.96
50854;BME280;44154;45.506;-122.806;2022-11-18T13:43:33;102193.84;;;24.89;28.97
50854;BME280;44154;45.506;-122.806;2022-11-18T13:46:12;102201.09;;;25.02;29.10
50854;BME280;44154;45.506;-122.806;2022-11-18T13:48:52;102195.91;;;25.19;29.29
50854;BME280;44154;45.506;-122.806;2022-11-18T13:51:21;102207.75;;;25.38;29.09
50854;BME280;44154;45.506;-122.806;2022-11-18T13:53:48;102198.53;;;25.51;29.11
50854;BME280;44154;45.506;-122.806;2022-11-18T13:56:24;102193.75;;;25.65;28.59
50854;BME280;44154;45.506;-122.806;2022-11-18T13:58:56;102188.63;;;25.68;29.03
50854;BME280;44154;45.506;-122.806;2022-11-18T14:01:33;102202.81;;;25.65;29.26
50854;BME280;44154;45.506;-122.806;2022-11-18T14:04:01;102197.25;;;25.53;29.09
50854;BME280;44154;45.506;-122.806;2022-11-18T14:09:17;102192.75;;;25.40;29.29
50854;BME280;44154;45.506;-122.806;2022-11-18T14:12:05;102192.91;;;25.45;29.17
50854;BME280;44154;45.506;-122.806;2022-11-18T14:14:37;102187.13;;;25.54;29.24
50854;BME280;44154;45.506;-122.806;2022-11-18T14:19:43;102187.50;;;25.76;28.73
50854;BME280;44154;45.506;-122.806;2022-11-18T14:22:16;102153.69;;;25.63;28.98
50854;BME280;44154;45.506;-122.806;2022-11-18T14:24:43;102169.44;;;25.68;28.99
50854;BME280;44154;45.506;-122.806;2022-11-18T14:27:40;102174.34;;;25.66;29.26